Time;durP1;ratioP1;P1;durP2;ratioP2;P2;SDS_P1;SDS_P2;PMS_P1;PMS_P2;Temp;Humidity;BMP_temperature;BMP_pressure;BME280_temperature;BME280_humidity;BME280_pressure;Samples;Min_cycle;Max_cycle;Signal;HPM_P1;HPM_P2
2022/09/10 00:00:42;;;;;;;18.98;7.80;;;;;;;13.03;100.00;100779.31;5073471;28;20028;-87
2022/09/10 00:03:09;;;;;;;21.13;8.95;;;;;;;13.06;100.00;100778.84;5073486;28;20047;-87
2022/09/10 00:05:42;;;;;;;19.43;8.23;;;;;;;13.10;100.00;100786.31;5074999;28;20028;-86
2022/09/10 00:08:12;;;;;;;28.23;8.93;;;;;;;13.10;100.00;100782.78;5074518;28;20032;-86
2022/09/10 00:10:41;;;;;;;20.35;8.48;;;;;;;13.11;100.00;100777.09;5073662;28;20032;-87
2022/09/10 00:13:08;;;;;;;19.08;8.30;;;;;;;13.10;100.00;100775.44;5074530;28;20036;-87
2022/09/10 00:16:04;;;;;;;15.70;8.20;;;;;;;13.13;100.00;100785.03;5073403;28;20119;-87
2022/09/10 00:18:33;;;;;;;21.10;7.63;;;;;;;13.07;100.00;100770.44;5052922;28;20048;-86
2022/09/10 00:21:03;;;;;;;20.10;7.80;;;;;;;13.08;100.00;100774.84;5073970;28;20036;-86
2022/09/10 00:23:29;;;;;;;20.58;8.23;;;;;;;13.07;100.00;100775.06;5073653;28;20373;-87
2022/09/10 00:25:58;;;;;;;19.48;8.05;;;;;;;13.07;100.00;100773.16;5073169;28;20041;-87
2022/09/10 00:28:29;;;;;;;25.20;8.00;;;;;;;13.07;100.00;100769.63;5056849;28;20182;-87
2022/09/10 00:30:57;;;;;;;22.20;7.75;;;;;;;13.07;100.00;100773.16;5074473;28;20113;-87
2022/09/10 00:33:23;;;;;;;20.42;8.30;;;;;;;13.07;100.00;100769.63;5056939;28;20071;-87
2022/09/10 00:35:51;;;;;;;21.67;8.02;;;;;;;13.06;100.00;100762.50;5074381;28;20038;-87
2022/09/10 00:38:17;;;;;;;23.73;8.38;;;;;;;13.08;100.00;100776.72;5072929;28;20036;-87
2022/09/10 00:40:43;;;;;;;20.90;8.30;;;;;;;13.05;100.00;100772.59;5074556;28;20111;-87
2022/09/10 00:43:20;;;;;;;18.73;8.30;;;;;;;13.09;100.00;100783.84;5072614;28;20115;-88
2022/09/10 00:45:54;;;;;;;22.08;8.65;;;;;;;13.05;100.00;100772.59;5072820;28;20032;-87
2022/09/10 00:48:26;;;;;;;27.55;8.73;;;;;;;13.08;100.00;100777.56;5072896;28;20455;-87
2022/09/10 00:50:55;;;;;;;21.43;8.80;;;;;;;13.10;100.00;100771.88;5073121;28;20032;-86
2022/09/10 00:53:25;;;;;;;23.60;8.43;;;;;;;13.10;100.00;100766.44;5072699;28;20462;-87
2022/09/10 00:55:55;;;;;;;23.58;9.35;;;;;;;13.10;100.00;100769.97;5072432;28;20390;-87
2022/09/10 00:58:24;;;;;;;21.40;9.30;;;;;;;13.12;100.00;100773.31;5074268;28;20103;-87
2022/09/10 01:00:54;;;;;;;19.83;9.10;;;;;;;13.14;100.00;100770.34;5072665;28;20048;-87
2022/09/10 01:03:20;;;;;;;18.60;9.77;;;;;;;13.16;100.00;100781.84;5073341;28;20418;-87
2022/09/10 01:05:47;;;;;;;30.27;9.65;;;;;;;13.22;100.00;100793.69;5072574;28;20068;-87
2022/09/10 01:08:17;;;;;;;24.80;9.98;;;;;;;13.23;100.00;100782.56;5072253;28;20028;-87
2022/09/10 01:11:05;;;;;;;28.08;10.00;;;;;;;13.29;100.00;100792.53;5072849;28;20416;-87
2022/09/10 01:13:59;;;;;;;24.00;10.02;;;;;;;13.33;100.00;100790.13;5073194;28;20087;-87
2022/09/10 01:16:40;;;;;;;28.20;9.20;;;;;;;13.37;100.00;100799.53;5062302;28;20063;-87
2022/09/10 01:19:30;;;;;;;20.00;9.57;;;;;;;13.40;100.00;100790.06;5071975;28;20037;-88
2022/09/10 01:22:22;;;;;;;26.88;10.50;;;;;;;13.41;100.00;100792.56;5073539;28;20028;-88
2022/09/10 01:25:44;;;;;;;26.55;10.20;;;;;;;13.42;100.00;100788.78;5072324;28;20516;-88
2022/09/10 01:28:23;;;;;;;26.55;10.82;;;;;;;13.44;100.00;100794.81;4975781;28;20035;-89
2022/09/10 01:30:55;;;;;;;31.37;10.90;;;;;;;13.42;100.00;100786.06;5062385;28;20127;-88
2022/09/10 01:33:45;;;;;;;23.83;11.15;;;;;;;13.44;100.00;100789.38;5072611;28;20021;-88
2022/09/10 01:36:26;;;;;;;29.15;10.95;;;;;;;13.43;100.00;100786.88;5071981;28;20024;-88
2022/09/10 01:39:01;;;;;;;23.83;10.70;;;;;;;13.44;100.00;100785.81;5072597;28;20029;-88
2022/09/10 01:41:27;;;;;;;30.23;10.95;;;;;;;13.44;100.00;100781.19;5072649;28;20035;-88
2022/09/10 01:43:53;;;;;;;27.17;11.57;;;;;;;13.47;100.00;100782.63;5071948;28;20043;-87
2022/09/10 01:46:49;;;;;;;29.70;11.73;;;;;;;13.50;100.00;100787.59;5073514;28;20390;-88
2022/09/10 01:49:27;;;;;;;34.85;11.60;;;;;;;13.53;100.00;100786.31;5073993;28;20040;-88
2022/09/10 01:52:31;;;;;;;30.40;12.43;;;;;;;13.53;100.00;100784.38;5072696;28;20036;-87
2022/09/10 01:55:22;;;;;;;30.73;11.25;;;;;;;13.55;100.00;100792.34;5042376;28;20379;-87
2022/09/10 01:58:19;;;;;;;29.60;12.10;;;;;;;13.49;100.00;100775.03;5031867;28;20047;-87
2022/09/10 02:00:54;;;;;;;33.15;12.60;;;;;;;13.52;100.00;100785.44;5076991;28;20127;-87
2022/09/10 02:03:24;;;;;;;37.78;13.77;;;;;;;13.56;100.00;100774.91;5076146;28;20039;-87
2022/09/10 02:05:52;;;;;;;37.40;13.60;;;;;;;13.59;100.00;100786.16;5076095;28;20549;-87
2022/09/10 02:08:23;;;;;;;32.95;13.60;;;;;;;13.57;100.00;100773.81;5075702;28;20033;-86
2022/09/10 02:10:55;;;;;;;34.67;14.43;;;;;;;13.57;100.00;100771.09;5076297;28;20373;-87
2022/09/10 02:13:22;;;;;;;36.70;13.45;;;;;;;13.60;100.00;100781.56;5075565;28;20029;-86
2022/09/10 02:15:50;;;;;;;29.88;13.40;;;;;;;13.60;100.00;100774.19;5075770;28;20115;-86
2022/09/10 02:18:17;;;;;;;38.70;14.23;;;;;;;13.64;100.00;100777.28;5076116;28;20470;-87
2022/09/10 02:20:44;;;;;;;47.13;14.18;;;;;;;13.63;100.00;100765.53;5059587;28;20058;-85
2022/09/10 02:23:12;;;;;;;39.70;14.48;;;;;;;13.63;100.00;100767.47;5059960;28;20344;-86
2022/09/10 02:25:37;;;;;;;42.90;14.60;;;;;;;13.64;100.00;100764.50;5059232;28;20066;-86
2022/09/10 02:28:05;;;;;;;39.07;15.43;;;;;;;13.64;100.00;100764.50;5058874;28;20413;-87
2022/09/10 02:30:30;;;;;;;41.95;15.07;;;;;;;13.66;100.00;100759.63;5075454;28;20051;-87
2022/09/10 02:32:55;;;;;;;38.60;14.77;;;;;;;13.65;100.00;100757.94;5058560;28;20032;-87
2022/09/10 02:35:21;;;;;;;41.50;14.70;;;;;;;13.67;100.00;100761.28;5075491;28;20024;-86
2022/09/10 02:37:48;;;;;;;41.30;14.93;;;;;;;13.65;100.00;100757.13;5075341;28;20704;-85
2022/09/10 02:40:14;;;;;;;34.97;14.38;;;;;;;13.69;100.00;100771.94;5075644;28;20025;-86
2022/09/10 02:42:45;;;;;;;38.37;14.87;;;;;;;13.65;100.00;100765.31;5075763;28;20062;-86
2022/09/10 02:45:14;;;;;;;40.47;15.65;;;;;;;13.69;100.00;100766.50;5075587;28;20401;-86
2022/09/10 02:47:40;;;;;;;36.80;15.15;;;;;;;13.69;100.00;100758.31;5074910;28;20028;-86
2022/09/10 02:50:07;;;;;;;35.53;13.80;;;;;;;13.68;100.00;100762.09;5075196;28;20085;-87
2022/09/10 02:52:32;;;;;;;42.33;15.98;;;;;;;13.67;100.00;100760.44;5058810;28;20040;-87
2022/09/10 02:54:58;;;;;;;35.07;14.70;;;;;;;13.69;100.00;100761.03;5074836;28;20025;-86
2022/09/10 02:57:25;;;;;;;40.78;16.10;;;;;;;13.71;100.00;100764.34;5058430;28;20124;-87
2022/09/10 02:59:52;;;;;;;48.42;17.00;;;;;;;13.72;100.00;100757.03;5074952;28;20041;-87
2022/09/10 03:02:19;;;;;;;28.33;14.63;;;;;;;13.71;100.00;100766.25;5075140;28;20032;-88
2022/09/10 03:04:47;;;;;;;36.30;15.63;;;;;;;13.73;100.00;100761.38;5075153;28;20036;-87
2022/09/10 03:07:18;;;;;;;36.17;16.50;;;;;;;13.76;100.00;100769.09;5059150;28;20060;-88
2022/09/10 03:09:46;;;;;;;38.47;17.00;;;;;;;13.77;100.00;100766.13;5074583;28;20032;-87
2022/09/10 03:12:15;;;;;;;38.95;17.17;;;;;;;13.77;100.00;100768.03;5074589;28;20032;-87
2022/09/10 03:14:46;;;;;;;41.72;16.92;;;;;;;13.79;100.00;100763.16;5075840;28;20024;-87
2022/09/10 03:17:11;;;;;;;46.33;17.90;;;;;;;13.78;100.00;100769.69;5060968;28;20143;-87
2022/09/10 03:19:38;;;;;;;48.93;17.63;;;;;;;13.79;100.00;100760.44;5077939;28;20486;-86
2022/09/10 03:22:04;;;;;;;42.13;17.38;;;;;;;13.83;100.00;100769.78;5077693;28;20059;-85
2022/09/10 03:24:29;;;;;;;50.03;18.20;;;;;;;13.81;100.00;100766.50;5077922;28;20125;-86
2022/09/10 03:26:55;;;;;;;50.92;17.85;;;;;;;13.84;100.00;100763.28;5077905;28;20076;-86
2022/09/10 03:29:21;;;;;;;64.67;19.17;;;;;;;13.83;100.00;100764.34;5077853;28;20027;-86
2022/09/10 03:31:50;;;;;;;55.78;18.38;;;;;;;13.82;100.00;100768.16;5095641;28;20473;-85
2022/09/10 03:34:16;;;;;;;42.45;17.48;;;;;;;13.82;100.00;100757.25;5095925;28;20038;-85
2022/09/10 03:36:42;;;;;;;55.83;19.52;;;;;;;13.83;100.00;100753.44;5077324;28;20024;-86
2022/09/10 03:39:07;;;;;;;50.07;20.20;;;;;;;13.81;100.00;100761.84;5060989;28;20377;-85
2022/09/10 03:41:33;;;;;;;50.97;19.77;;;;;;;13.85;100.00;100754.03;5077291;28;20024;-85
2022/09/10 03:43:59;;;;;;;53.28;19.95;;;;;;;13.85;100.00;100760.31;5077547;28;20062;-86
2022/09/10 03:46:25;;;;;;;56.78;20.65;;;;;;;13.86;100.00;100758.41;5077210;28;20064;-87
2022/09/10 03:48:53;;;;;;;51.43;21.53;;;;;;;13.84;100.00;100746.91;5077353;28;20032;-87
2022/09/10 03:51:21;;;;;;;53.83;21.63;;;;;;;13.83;100.00;100754.28;5077492;28;20032;-85
2022/09/10 03:53:47;;;;;;;52.75;19.83;;;;;;;13.86;100.00;100761.13;5077769;28;20059;-85
2022/09/10 03:56:12;;;;;;;56.78;21.55;;;;;;;13.82;100.00;100751.78;5077433;28;20028;-86
2022/09/10 03:58:37;;;;;;;57.07;20.40;;;;;;;13.85;100.00;100748.59;5077293;28;20432;-86
2022/09/10 04:01:03;;;;;;;62.10;20.90;;;;;;;13.85;100.00;100757.59;5060593;28;20067;-85
2022/09/10 04:03:29;;;;;;;55.72;20.63;;;;;;;13.86;100.00;100748.34;5043669;28;20051;-85
2022/09/10 04:05:54;;;;;;;57.07;20.57;;;;;;;13.87;100.00;100754.63;5060194;28;20118;-85
2022/09/10 04:08:20;;;;;;;56.40;21.17;;;;;;;13.85;100.00;100754.84;5076780;28;20052;-85
2022/09/10 04:10:47;;;;;;;60.55;20.85;;;;;;;13.82;100.00;100744.44;5076858;28;20040;-85
2022/09/10 04:13:12;;;;;;;55.13;20.03;;;;;;;13.83;100.00;100745.25;5077768;28;20077;-86
2022/09/10 04:15:38;;;;;;;53.10;21.15;;;;;;;13.83;100.00;100739.78;5060562;28;20428;-86
2022/09/10 04:18:06;;;;;;;55.13;20.10;;;;;;;13.86;100.00;100745.63;5076844;28;20082;-86
2022/09/10 04:20:32;;;;;;;60.08;21.20;;;;;;;13.85;100.00;100741.22;5076756;28;20051;-86
2022/09/10 04:22:59;;;;;;;53.10;20.67;;;;;;;13.86;100.00;100737.44;5059761;28;20039;-86
2022/09/10 04:25:25;;;;;;;56.67;21.42;;;;;;;13.86;100.00;100750.22;5060735;28;20082;-87
2022/09/10 04:27:50;;;;;;;61.33;21.80;;;;;;;13.88;100.00;100749.97;5094883;28;20458;-86
2022/09/10 04:30:16;;;;;;;52.67;20.60;;;;;;;13.84;100.00;100734.09;5059772;28;20043;-86
2022/09/10 04:32:43;;;;;;;65.32;22.02;;;;;;;13.85;100.00;100732.22;5094824;28;20067;-86
2022/09/10 04:35:10;;;;;;;53.83;21.92;;;;;;;13.86;100.00;100740.16;5060065;28;20039;-86
2022/09/10 04:37:36;;;;;;;56.67;21.45;;;;;;;13.85;100.00;100743.94;5059935;28;20488;-85
2022/09/10 04:40:02;;;;;;;61.47;22.30;;;;;;;13.87;100.00;100740.97;5076477;28;20038;-87
2022/09/10 04:42:30;;;;;;;55.63;21.60;;;;;;;13.84;100.00;100744.19;5059775;28;20059;-87
2022/09/10 04:44:58;;;;;;;54.63;20.73;;;;;;;13.82;100.00;100741.69;5094828;28;20024;-87
2022/09/10 04:47:24;;;;;;;53.05;21.35;;;;;;;13.83;100.00;100745.25;5076231;28;20028;-86
2022/09/10 04:49:49;;;;;;;54.13;21.27;;;;;;;13.81;100.00;100747.41;5042660;28;20039;-87
2022/09/10 04:52:16;;;;;;;62.60;20.77;;;;;;;13.81;100.00;100745.50;5075887;28;20028;-87
2022/09/10 04:54:41;;;;;;;61.25;22.65;;;;;;;13.83;100.00;100737.06;5060637;28;20111;-87
2022/09/10 04:57:07;;;;;;;60.83;21.43;;;;;;;13.87;100.00;100751.88;5076305;28;20110;-86
2022/09/10 04:59:33;;;;;;;57.88;22.77;;;;;;;13.86;100.00;100755.69;5060354;28;20036;-86
2022/09/10 05:02:02;;;;;;;65.53;22.77;;;;;;;13.85;100.00;100756.75;5076056;28;20032;-86
2022/09/10 05:04:27;;;;;;;55.42;21.10;;;;;;;13.85;100.00;100751.31;5076027;28;20020;-87
2022/09/10 05:06:53;;;;;;;51.07;22.03;;;;;;;13.88;100.00;100756.28;5093916;28;20484;-86
2022/09/10 05:09:19;;;;;;;62.55;22.50;;;;;;;13.90;100.00;100756.03;5094152;28;20032;-87
2022/09/10 05:11:46;;;;;;;62.67;23.77;;;;;;;13.89;100.00;100757.91;5059561;28;20493;-87
2022/09/10 05:14:12;;;;;;;61.83;23.77;;;;;;;13.89;100.00;100751.66;5075661;28;20073;-86
2022/09/10 05:16:37;;;;;;;68.00;23.92;;;;;;;13.90;100.00;100754.13;5059175;28;20036;-87
2022/09/10 05:19:03;;;;;;;62.60;23.00;;;;;;;13.90;100.00;100750.59;5072494;28;20041;-87
2022/09/10 05:21:30;;;;;;;55.75;21.45;;;;;;;13.93;100.00;100741.94;5072788;28;20059;-86
2022/09/10 05:23:57;;;;;;;59.22;22.80;;;;;;;13.98;100.00;100750.19;5072108;28;20036;-87
2022/09/10 05:26:23;;;;;;;59.25;21.52;;;;;;;14.02;100.00;100754.09;5072730;28;20024;-85
2022/09/10 05:28:50;;;;;;;69.43;25.47;;;;;;;14.03;100.00;100753.88;5055862;28;20035;-85
2022/09/10 05:31:16;;;;;;;63.15;24.27;;;;;;;14.04;100.00;100757.44;5072352;28;20028;-85
2022/09/10 05:33:42;;;;;;;64.47;25.70;;;;;;;14.07;100.00;100746.03;5073365;28;20493;-85
2022/09/10 05:36:10;;;;;;;61.33;24.65;;;;;;;14.10;100.00;100753.75;5056277;28;20040;-84
2022/09/10 05:38:36;;;;;;;58.37;23.87;;;;;;;14.10;100.00;100751.03;5056044;28;20025;-85
2022/09/10 05:41:01;;;;;;;69.82;25.52;;;;;;;14.09;100.00;100748.53;5072604;28;20032;-86
2022/09/10 05:43:27;;;;;;;62.80;24.80;;;;;;;14.14;100.00;100751.34;5055842;28;20536;-86
2022/09/10 05:45:53;;;;;;;69.75;25.33;;;;;;;14.17;100.00;100757.16;5072237;28;20028;-85
2022/09/10 05:48:18;;;;;;;71.93;25.90;;;;;;;14.19;100.00;100754.19;5072634;28;20041;-86
2022/09/10 05:50:44;;;;;;;65.35;25.63;;;;;;;14.27;100.00;100752.97;5055573;28;20458;-87
2022/09/10 05:53:10;;;;;;;67.07;27.10;;;;;;;14.23;100.00;100754.53;5072414;28;20041;-86
2022/09/10 05:55:35;;;;;;;63.78;24.40;;;;;;;14.24;100.00;100748.81;5055661;28;20033;-86
2022/09/10 05:58:01;;;;;;;69.37;25.43;;;;;;;14.24;100.00;100764.38;5055990;28;20037;-85
2022/09/10 06:00:27;;;;;;;63.53;26.85;;;;;;;14.25;100.00;100755.13;5055415;28;20037;-84
2022/09/10 06:02:53;;;;;;;62.95;25.17;;;;;;;14.23;100.00;100757.25;5073298;28;20385;-86
2022/09/10 06:05:21;;;;;;;63.83;24.80;;;;;;;14.23;100.00;100760.81;5055203;28;20054;-91
2022/09/10 06:07:47;;;;;;;63.60;24.77;;;;;;;14.24;100.00;100764.38;5055722;28;20033;-85
2022/09/10 06:10:13;;;;;;;59.73;23.73;;;;;;;14.27;100.00;100755.72;5055501;28;20123;-85
2022/09/10 06:12:39;;;;;;;61.83;24.98;;;;;;;14.26;100.00;100749.44;5055147;28;20078;-85
2022/09/10 06:15:06;;;;;;;60.77;25.27;;;;;;;14.27;100.00;100761.16;5073365;28;20071;-85
2022/09/10 06:17:31;;;;;;;57.83;25.27;;;;;;;14.26;100.00;100759.50;5071897;28;20577;-84
2022/09/10 06:19:56;;;;;;;57.27;26.00;;;;;;;14.26;100.00;100756.78;5055102;28;20111;-84
2022/09/10 06:22:22;;;;;;;66.37;26.83;;;;;;;14.26;100.00;100767.69;5072142;28;20366;-84
2022/09/10 06:24:48;;;;;;;56.25;22.58;;;;;;;14.26;100.00;100763.09;5055082;28;20390;-85
2022/09/10 06:27:16;;;;;;;58.40;24.13;;;;;;;14.24;100.00;100764.38;5054848;28;20052;-86
2022/09/10 06:29:41;;;;;;;59.75;25.15;;;;;;;14.28;100.00;100768.28;5071867;28;20458;-85
2022/09/10 06:32:10;;;;;;;62.47;26.60;;;;;;;14.29;100.00;100772.66;5071863;28;20036;-85
2022/09/10 06:34:35;;;;;;;60.40;25.95;;;;;;;14.27;100.00;100772.09;5055209;28;20036;-84
2022/09/10 06:37:02;;;;;;;67.80;27.50;;;;;;;14.24;100.00;100775.31;5071805;28;20033;-85
2022/09/10 06:39:27;;;;;;;63.58;27.63;;;;;;;14.25;100.00;100782.44;5038776;28;20029;-86
2022/09/10 06:41:53;;;;;;;74.90;27.77;;;;;;;14.25;100.00;100775.06;5071328;28;20040;-86
2022/09/10 06:44:21;;;;;;;64.10;26.00;;;;;;;14.25;100.00;100775.06;5055090;28;20033;-86
2022/09/10 06:46:46;;;;;;;68.03;26.83;;;;;;;14.23;100.00;100771.72;5074401;28;20377;-87
2022/09/10 06:49:11;;;;;;;69.40;28.95;;;;;;;14.27;100.00;100777.53;5074961;28;20029;-85
2022/09/10 06:51:38;;;;;;;65.47;29.13;;;;;;;14.25;100.00;100774.25;5058830;28;20377;-87
2022/09/10 06:54:04;;;;;;;70.93;28.42;;;;;;;14.26;100.00;100775.88;5075839;28;20025;-87
2022/09/10 06:56:29;;;;;;;70.73;28.93;;;;;;;14.27;100.00;100783.00;5075573;28;20064;-86
2022/09/10 06:58:56;;;;;;;69.30;28.38;;;;;;;14.31;100.00;100786.91;5058353;28;20477;-87
2022/09/10 07:01:23;;;;;;;71.23;28.47;;;;;;;14.35;100.00;100779.88;5058349;28;20036;-87
2022/09/10 07:03:53;;;;;;;72.55;29.38;;;;;;;14.38;100.00;100784.88;5058115;28;20032;-87
2022/09/10 07:06:19;;;;;;;71.18;29.83;;;;;;;14.38;100.00;100780.22;5075476;28;20074;-88
2022/09/10 07:08:44;;;;;;;75.50;29.77;;;;;;;14.41;100.00;100780.81;5075102;28;20036;-86
2022/09/10 07:11:13;;;;;;;64.27;28.40;;;;;;;14.39;100.00;100781.91;5076302;28;20420;-86
2022/09/10 07:13:39;;;;;;;69.38;28.00;;;;;;;14.38;100.00;100791.16;5075048;28;20029;-84
2022/09/10 07:16:08;;;;;;;60.72;25.80;;;;;;;14.38;100.00;100782.16;5074469;28;20044;-84
2022/09/10 07:18:34;;;;;;;65.13;26.50;;;;;;;14.40;100.00;100788.19;5074467;28;20056;-85
2022/09/10 07:21:11;;;;;;;53.67;24.47;;;;;;;14.37;100.00;100794.13;5076232;28;20039;-85
2022/09/10 07:23:40;;;;;;;60.90;26.95;;;;;;;14.35;100.00;100798.97;5074639;28;20048;-85
2022/09/10 07:26:08;;;;;;;61.95;26.52;;;;;;;14.37;100.00;100811.31;5075769;28;20064;-85
2022/09/10 07:28:35;;;;;;;64.13;27.65;;;;;;;14.37;100.00;100802.31;5074760;28;20028;-85
2022/09/10 07:31:19;;;;;;;62.45;27.90;;;;;;;14.39;100.00;100802.88;5074455;28;20482;-85
2022/09/10 07:33:46;;;;;;;62.90;28.17;;;;;;;14.45;100.00;100809.28;5075402;28;20033;-85
2022/09/10 07:36:12;;;;;;;63.05;28.33;;;;;;;14.52;100.00;100805.34;5075450;28;20032;-85
2022/09/10 07:38:39;;;;;;;63.15;28.23;;;;;;;14.57;100.00;100813.66;5074795;28;20035;-86
2022/09/10 07:41:06;;;;;;;64.22;28.02;;;;;;;14.61;100.00;100799.50;5057228;28;20042;-86
2022/09/10 07:43:32;;;;;;;66.35;29.45;;;;;;;14.70;100.00;100803.53;5057297;28;20029;-86
2022/09/10 07:45:57;;;;;;;62.17;29.70;;;;;;;14.70;100.00;100807.09;5074211;28;20527;-86
2022/09/10 07:48:24;;;;;;;57.38;29.50;;;;;;;14.73;100.00;100816.69;5057387;28;20040;-86
2022/09/10 07:50:49;;;;;;;55.28;28.05;;;;;;;14.72;100.00;100801.41;5074034;28;20036;-86
2022/09/10 07:53:16;;;;;;;57.50;29.70;;;;;;;14.78;100.00;100811.34;5057304;28;20039;-86
2022/09/10 07:55:42;;;;;;;55.45;29.55;;;;;;;14.76;100.00;100815.38;5057354;28;20032;-86
2022/09/10 07:58:07;;;;;;;50.90;28.07;;;;;;;14.76;100.00;100807.19;5074926;28;20028;-88
2022/09/10 08:00:35;;;;;;;54.90;29.52;;;;;;;14.79;100.00;100829.38;5074057;28;20053;-91
2022/09/10 08:03:02;;;;;;;54.60;30.63;;;;;;;14.82;100.00;100828.91;5058304;28;20043;-89
2022/09/10 08:05:30;;;;;;;52.05;30.13;;;;;;;14.84;100.00;100828.66;5073355;28;20024;-90
2022/09/10 08:07:56;;;;;;;51.45;31.00;;;;;;;14.88;100.00;100829.81;5073933;28;20031;-89
2022/09/10 08:10:21;;;;;;;52.88;31.35;;;;;;;14.95;100.00;100819.56;5073838;28;20025;-90
2022/09/10 08:12:51;;;;;;;50.43;30.40;;;;;;;15.03;100.00;100832.84;5073561;28;20382;-90
2022/09/10 08:15:17;;;;;;;50.35;29.75;;;;;;;15.05;100.00;100836.13;5073530;28;20028;-88
2022/09/10 08:17:43;;;;;;;49.43;28.47;;;;;;;15.01;100.00;100837.69;5079826;28;20052;-91
2022/09/10 08:20:14;;;;;;;52.17;29.47;;;;;;;15.00;100.00;100843.41;5077201;28;20424;-90
2022/09/10 08:22:48;;;;;;;47.63;29.37;;;;;;;14.99;100.00;100845.31;5078338;28;20266;-91
2022/09/10 08:25:14;;;;;;;49.08;31.63;;;;;;;15.09;100.00;100850.97;5077617;28;20024;-91
2022/09/10 08:27:44;;;;;;;50.37;29.50;;;;;;;15.13;100.00;100845.00;5077600;28;20028;-91
2022/09/10 08:30:11;;;;;;;46.43;29.77;;;;;;;15.16;100.00;100861.75;5060564;28;20285;-90
2022/09/10 08:32:36;;;;;;;45.80;28.08;;;;;;;15.25;100.00;100859.44;5076483;28;20039;-89
2022/09/10 08:35:03;;;;;;;42.58;27.60;;;;;;;15.31;100.00;100874.88;5076361;28;20036;-90
2022/09/10 08:37:31;;;;;;;37.43;26.60;;;;;;;15.31;100.00;100865.81;5076905;28;20042;-91
2022/09/10 08:39:57;;;;;;;37.83;28.02;;;;;;;15.37;100.00;100864.88;5076773;28;20036;-91
2022/09/10 08:42:31;;;;;;;36.90;24.80;;;;;;;15.43;100.00;100872.06;5060418;28;20142;-91
2022/09/10 08:45:13;;;;;;;32.57;24.07;;;;;;;15.43;100.00;100874.81;5095260;28;20110;-92
2022/09/10 08:47:57;;;;;;;29.35;22.90;;;;;;;15.44;100.00;100876.44;5079161;28;20102;-92
2022/09/10 08:50:56;;;;;;;30.30;23.50;;;;;;;15.43;100.00;100880.28;5076494;28;20089;-92
2022/09/10 08:53:45;;;;;;;29.00;21.85;;;;;;;15.46;100.00;100887.13;5077150;28;20038;-91
2022/09/10 08:56:16;;;;;;;32.65;22.35;;;;;;;15.41;100.00;100879.66;5063652;28;20035;-91
2022/09/10 08:59:04;;;;;;;32.80;22.80;;;;;;;15.46;100.00;100882.50;5077152;28;20081;-92
2022/09/10 09:01:38;;;;;;;29.63;22.63;;;;;;;15.30;100.00;100894.25;5094957;28;20028;-92
2022/09/10 09:04:11;;;;;;;33.28;22.27;;;;;;;15.25;100.00;100886.75;5076385;28;20102;-89
2022/09/10 09:06:43;;;;;;;35.10;22.05;;;;;;;15.14;100.00;100882.19;5076612;28;20077;-88
2022/09/10 09:09:11;;;;;;;31.20;22.40;;;;;;;15.12;100.00;100893.38;5075592;28;20435;-89
2022/09/10 09:11:48;;;;;;;35.07;24.73;;;;;;;15.13;100.00;100895.03;5059421;28;20032;-89
2022/09/10 09:14:28;;;;;;;44.47;25.83;;;;;;;15.20;100.00;100894.88;5075643;28;20039;-89
2022/09/10 09:17:00;;;;;;;44.40;26.85;;;;;;;15.26;100.00;100892.00;5076302;28;20067;-89
2022/09/10 09:19:46;;;;;;;39.45;25.85;;;;;;;15.26;100.00;100897.47;5071872;28;20084;-88
2022/09/10 09:22:19;;;;;;;37.53;25.65;;;;;;;15.34;100.00;100890.78;5073332;28;20028;-89
2022/09/10 09:24:56;;;;;;;46.07;25.50;;;;;;;15.43;100.00;100894.75;5072702;28;20040;-89
2022/09/10 09:27:26;;;;;;;35.03;24.85;;;;;;;15.42;100.00;100897.75;5072371;28;20090;-88
2022/09/10 09:30:03;;;;;;;37.20;23.92;;;;;;;15.50;100.00;100911.03;5072354;28;20029;-89
2022/09/10 09:32:33;;;;;;;36.90;25.42;;;;;;;15.51;100.00;100898.16;5073094;28;20039;-89
2022/09/10 09:35:40;;;;;;;33.20;24.25;;;;;;;15.53;100.00;100902.31;5073356;28;20032;-89
2022/09/10 09:38:05;;;;;;;38.97;23.77;;;;;;;15.65;100.00;100902.25;5044568;28;20390;-89
2022/09/10 09:40:40;;;;;;;38.40;27.17;;;;;;;15.84;100.00;100911.06;5072534;28;20044;-89
2022/09/10 09:43:22;;;;;;;40.50;27.30;;;;;;;16.06;100.00;100904.81;5073148;28;20037;-89
2022/09/10 09:45:52;;;;;;;36.20;25.25;;;;;;;16.23;100.00;100907.53;5072741;28;20037;-89
2022/09/10 09:48:24;;;;;;;31.85;23.30;;;;;;;16.19;100.00;100906.38;5072696;28;20043;-89
2022/09/10 09:50:54;;;;;;;32.72;21.75;;;;;;;16.22;100.00;100914.09;5072967;28;20056;-89
2022/09/10 09:53:25;;;;;;;27.03;20.67;;;;;;;16.08;100.00;100908.97;5072387;28;20035;-89
2022/09/10 09:55:55;;;;;;;26.77;19.42;;;;;;;15.99;100.00;100918.69;5071769;28;20540;-89
2022/09/10 09:58:20;;;;;;;27.90;17.90;;;;;;;15.94;100.00;100902.16;5072056;28;20115;-89
2022/09/10 10:01:07;;;;;;;26.53;19.07;;;;;;;15.85;100.00;100911.88;5072137;28;20067;-88
2022/09/10 10:03:47;;;;;;;29.48;21.05;;;;;;;15.80;100.00;100909.91;5072233;28;20025;-89
2022/09/10 10:06:14;;;;;;;27.77;21.60;;;;;;;15.84;100.00;100907.47;5072064;28;20028;-89
2022/09/10 10:08:43;;;;;;;34.47;23.38;;;;;;;15.94;100.00;100891.22;5055192;28;20051;-89
2022/09/10 10:11:12;;;;;;;31.27;21.77;;;;;;;16.06;100.00;100907.56;5072140;28;20021;-86
2022/09/10 10:13:46;;;;;;;29.27;21.80;;;;;;;16.17;100.00;100905.81;5072237;28;20458;-85
2022/09/10 10:16:16;;;;;;;29.58;22.10;;;;;;;16.22;100.00;100920.38;5072553;28;20029;-86
2022/09/10 10:18:43;;;;;;;28.70;21.58;;;;;;;16.42;100.00;100932.72;5071481;28;20049;-85
2022/09/10 10:21:30;;;;;;;32.95;19.77;;;;;;;16.59;100.00;100930.75;5057038;28;20039;-85
2022/09/10 10:23:56;;;;;;;22.57;17.63;;;;;;;16.74;100.00;100932.88;5075966;28;20554;-85
2022/09/10 10:26:34;;;;;;;24.70;17.52;;;;;;;17.10;100.00;100924.28;5058940;28;20123;-86
2022/09/10 10:29:05;;;;;;;18.83;15.77;;;;;;;17.39;100.00;100929.50;5075269;28;20029;-86
2022/09/10 10:31:40;;;;;;;18.73;15.40;;;;;;;17.44;100.00;100933.13;5076790;28;20035;-85
2022/09/10 10:34:09;;;;;;;16.55;14.30;;;;;;;17.37;100.00;100921.53;5075727;28;20033;-86
2022/09/10 10:37:02;;;;;;;16.50;14.32;;;;;;;17.16;100.00;100931.47;5075037;28;20033;-86
2022/09/10 10:39:42;;;;;;;17.55;13.68;;;;;;;17.01;100.00;100930.22;5075862;28;20032;-86
2022/09/10 10:42:39;;;;;;;16.17;13.80;;;;;;;16.89;100.00;100924.03;5075600;28;20060;-86
2022/09/10 10:45:29;;;;;;;19.27;13.15;;;;;;;17.09;100.00;100934.41;5075285;28;20477;-86
2022/09/10 10:48:15;;;;;;;19.67;12.60;;;;;;;17.26;100.00;100934.31;5074853;28;20059;-86
2022/09/10 10:50:52;;;;;;;18.10;12.63;;;;;;;17.52;100.00;100938.16;5075087;28;20060;-86
2022/09/10 10:53:33;;;;;;;18.13;11.55;;;;;;;17.29;100.00;100941.22;5075340;28;20107;-85
2022/09/10 10:56:07;;;;;;;22.53;12.27;;;;;;;16.92;100.00;100941.88;5075607;28;20032;-85
2022/09/10 10:58:35;;;;;;;16.67;11.95;;;;;;;16.83;100.00;100945.03;5076377;28;20529;-85
2022/09/10 11:01:04;;;;;;;22.48;12.18;;;;;;;16.66;100.00;100947.00;5075107;28;20036;-84
2022/09/10 11:04:21;;;;;;;12.88;10.65;;;;;;;16.54;100.00;100947.13;5076092;28;20106;-85
2022/09/10 11:06:58;;;;;;;20.33;13.50;;;;;;;16.41;100.00;100928.31;5033332;28;20047;-85
2022/09/10 11:09:32;;;;;;;19.97;11.60;;;;;;;16.28;100.00;100934.97;5074816;28;20032;-84
2022/09/10 11:12:04;;;;;;;28.50;12.55;;;;;;;16.20;100.00;100921.72;5076327;28;20020;-84
2022/09/10 11:14:39;;;;;;;27.25;13.57;;;;;;;16.17;100.00;100931.28;5074772;28;20032;-83
2022/09/10 11:17:30;;;;;;;25.50;14.35;;;;;;;16.09;100.00;100943.47;5076247;28;20025;-86